createdAt,value
2022-12-11T00:01:32.203Z,22.02
2022-12-11T00:03:33.616Z,22.92
2022-12-11T00:05:34.951Z,22.98
2022-12-11T00:07:36.258Z,22.23
2022-12-11T00:09:37.710Z,21.92
2022-12-11T00:11:39.069Z,21.52
2022-12-11T00:13:40.434Z,21.08
2022-12-11T00:15:41.755Z,20.98
2022-12-11T00:17:43.081Z,22.35
2022-12-11T00:19:44.522Z,21.65
2022-12-11T00:21:45.848Z,22.17
2022-12-11T00:23:47.176Z,20.60
2022-12-11T00:25:48.477Z,21.08
2022-12-11T00:27:49.777Z,19.92
2022-12-11T00:29:51.134Z,20.20
2022-12-11T00:31:52.572Z,21.23
2022-12-11T00:33:54.008Z,20.98
2022-12-11T00:35:55.425Z,21.27
2022-12-11T00:37:56.801Z,21.10
2022-12-11T00:39:58.178Z,22.95
2022-12-11T00:41:59.585Z,23.50
2022-12-11T00:44:01.107Z,23.13
2022-12-11T00:46:02.675Z,22.58
2022-12-11T00:48:04.264Z,21.98
2022-12-11T00:50:05.924Z,21.77
2022-12-11T00:52:07.232Z,21.02
2022-12-11T00:54:08.562Z,20.33
2022-12-11T00:56:10.975Z,21.05
2022-12-11T00:58:12.931Z,23.08
2022-12-11T01:00:14.412Z,22.70
2022-12-11T01:02:15.748Z,20.73
2022-12-11T01:04:17.202Z,21.38
2022-12-11T01:06:20.052Z,21.38
2022-12-11T01:08:21.598Z,21.63
2022-12-11T01:10:26.239Z,20.92
2022-12-11T01:12:28.593Z,21.02
2022-12-11T01:14:29.919Z,21.13
2022-12-11T01:16:31.341Z,20.25
2022-12-11T01:18:32.645Z,20.35
2022-12-11T01:20:34.229Z,20.50
2022-12-11T01:22:35.572Z,21.10
2022-12-11T01:24:38.167Z,20.70
2022-12-11T01:26:39.533Z,22.85
2022-12-11T01:28:41.197Z,21.48
2022-12-11T01:30:43.708Z,20.58
2022-12-11T01:32:45.072Z,21.88
2022-12-11T01:34:46.427Z,20.60
2022-12-11T01:36:47.947Z,20.65
2022-12-11T01:38:49.801Z,21.63
2022-12-11T01:40:51.729Z,20.85
2022-12-11T01:42:53.175Z,20.10
2022-12-11T01:45:13.127Z,19.13
2022-12-11T01:47:14.600Z,19.83
2022-12-11T01:49:17.423Z,21.20
2022-12-11T01:51:18.714Z,20.58
2022-12-11T01:53:22.888Z,20.88
2022-12-11T01:55:24.442Z,20.85
2022-12-11T01:57:25.805Z,19.55
2022-12-11T01:59:28.580Z,20.98
2022-12-11T02:01:33.378Z,21.30
2022-12-11T02:03:34.745Z,19.67
2022-12-11T02:05:36.527Z,21.58
2022-12-11T02:07:40.373Z,20.45
2022-12-11T02:09:43.621Z,21.50
2022-12-11T02:11:48.061Z,19.35
2022-12-11T02:13:55.578Z,20.25
2022-12-11T02:16:00.787Z,19.75
2022-12-11T02:18:02.169Z,20.05
2022-12-11T02:20:03.888Z,20.45
2022-12-11T02:22:08.345Z,19.55
2022-12-11T02:24:12.312Z,19.08
2022-12-11T02:26:25.140Z,20.40
2022-12-11T02:28:29.441Z,18.25
2022-12-11T02:30:31.756Z,19.25
2022-12-11T02:32:36.268Z,20.15
2022-12-11T02:34:41.700Z,19.10
2022-12-11T02:36:50.855Z,19.92
2022-12-11T02:38:53.385Z,18.25
2022-12-11T02:40:55.951Z,18.90
2022-12-11T02:42:58.975Z,19.02
2022-12-11T02:45:01.697Z,18.83
2022-12-11T02:47:04.174Z,18.50
2022-12-11T02:49:06.913Z,18.50
2022-12-11T02:51:09.079Z,18.65
2022-12-11T02:53:12.364Z,19.92
2022-12-11T02:55:15.092Z,20.27
2022-12-11T02:57:19.202Z,19.85
2022-12-11T02:59:23.946Z,21.45
2022-12-11T03:01:25.925Z,20.20
2022-12-11T03:03:28.959Z,20.95
2022-12-11T03:05:30.746Z,19.70
2022-12-11T03:07:34.067Z,20.42
2022-12-11T03:09:35.384Z,19.35
2022-12-11T03:11:36.766Z,20.38
2022-12-11T03:13:39.072Z,22.55
2022-12-11T03:15:55.382Z,22.55
2022-12-11T03:18:09.812Z,22.48
2022-12-11T03:20:17.327Z,23.45
2022-12-11T03:22:21.002Z,23.30
2022-12-11T03:24:38.658Z,22.67
2022-12-11T03:26:42.662Z,34.35
2022-12-11T03:28:44.052Z,33.13
2022-12-11T03:30:46.441Z,28.30
2022-12-11T03:32:50.492Z,29.27
2022-12-11T03:34:58.450Z,28.42
2022-12-11T03:37:00.775Z,25.00
2022-12-11T03:39:06.296Z,24.23
2022-12-11T03:41:07.779Z,24.23
2022-12-11T03:43:10.934Z,23.17
2022-12-11T03:45:13.449Z,22.70
2022-12-11T03:47:17.178Z,22.27
2022-12-11T03:49:21.069Z,24.25
2022-12-11T03:51:24.115Z,21.70
2022-12-11T03:53:26.553Z,23.23
2022-12-11T03:55:28.080Z,23.70
2022-12-11T03:57:31.629Z,23.48
2022-12-11T03:59:32.976Z,23.70
2022-12-11T04:01:35.259Z,22.55
2022-12-11T04:03:38.990Z,22.75
2022-12-11T04:05:44.849Z,22.05
2022-12-11T04:07:46.293Z,22.73
2022-12-11T04:09:47.683Z,22.50
2022-12-11T04:11:49.133Z,23.50
2022-12-11T04:14:10.439Z,22.23
2022-12-11T04:16:11.809Z,21.90
2022-12-11T04:18:31.711Z,19.45
2022-12-11T04:20:51.573Z,20.80
2022-12-11T04:23:11.506Z,20.65
2022-12-11T04:25:12.948Z,20.20
2022-12-11T04:27:14.629Z,19.48
2022-12-11T04:29:16.105Z,21.27
2022-12-11T04:31:18.797Z,21.40
2022-12-11T04:33:20.200Z,20.10
2022-12-11T04:35:21.918Z,20.58
2022-12-11T04:37:23.286Z,20.35
2022-12-11T04:39:24.634Z,21.95
2022-12-11T04:41:26.033Z,20.38
2022-12-11T04:43:27.885Z,19.80
2022-12-11T04:45:29.226Z,19.00
2022-12-11T04:47:30.623Z,19.65
2022-12-11T04:49:31.937Z,20.35
2022-12-11T04:51:33.292Z,20.80
2022-12-11T04:53:34.836Z,19.85
2022-12-11T04:55:36.172Z,20.50
2022-12-11T04:57:37.587Z,20.35
2022-12-11T04:59:39.090Z,20.27
2022-12-11T05:01:40.529Z,20.40
2022-12-11T05:03:42.414Z,17.85
2022-12-11T05:05:53.543Z,19.63
2022-12-11T05:07:54.917Z,19.65
2022-12-11T05:09:56.201Z,17.90
2022-12-11T05:11:57.511Z,17.55
2022-12-11T05:13:58.872Z,16.45
2022-12-11T05:16:00.310Z,17.55
2022-12-11T05:18:01.664Z,17.70
2022-12-11T05:20:03.281Z,17.55
2022-12-11T05:22:04.665Z,18.30
2022-12-11T05:24:06.105Z,19.00
2022-12-11T05:26:10.828Z,18.20
2022-12-11T05:28:12.189Z,16.48
2022-12-11T05:30:13.581Z,18.17
2022-12-11T05:32:14.965Z,19.23
2022-12-11T05:34:16.299Z,19.67
2022-12-11T05:36:22.177Z,19.38
2022-12-11T05:38:23.594Z,18.65
2022-12-11T05:40:24.901Z,19.58
2022-12-11T05:42:28.953Z,19.95
2022-12-11T05:44:30.599Z,19.25
2022-12-11T05:46:31.986Z,19.25
2022-12-11T05:48:33.585Z,20.00
2022-12-11T05:50:34.926Z,19.05
2022-12-11T05:52:36.398Z,19.30
2022-12-11T05:54:37.822Z,19.60
2022-12-11T05:56:39.425Z,18.90
2022-12-11T05:58:41.746Z,17.23
2022-12-11T06:00:43.459Z,17.63
2022-12-11T06:02:44.878Z,17.17
2022-12-11T06:04:46.408Z,16.77
2022-12-11T06:06:47.770Z,16.88
2022-12-11T06:08:52.613Z,18.15
2022-12-11T06:10:53.936Z,18.17
2022-12-11T06:12:55.255Z,18.17
2022-12-11T06:14:56.608Z,17.83
2022-12-11T06:16:57.895Z,16.75
2022-12-11T06:18:59.367Z,18.00
2022-12-11T06:21:00.760Z,16.77
2022-12-11T06:23:02.095Z,16.55
2022-12-11T06:25:03.625Z,17.15
2022-12-11T06:27:04.927Z,15.82
2022-12-11T06:29:11.032Z,16.92
2022-12-11T06:31:14.514Z,15.40
2022-12-11T06:33:17.303Z,15.90
2022-12-11T06:35:18.645Z,18.35
2022-12-11T06:37:19.963Z,16.60
2022-12-11T06:39:21.211Z,16.95
2022-12-11T06:41:22.584Z,16.95
2022-12-11T06:43:24.590Z,18.23
2022-12-11T06:45:25.889Z,17.50
2022-12-11T06:47:27.625Z,18.33
2022-12-11T06:49:28.950Z,19.08
2022-12-11T06:51:31.124Z,18.67
2022-12-11T06:53:32.467Z,18.17
2022-12-11T06:55:36.903Z,18.77
2022-12-11T06:57:38.375Z,18.50
2022-12-11T06:59:39.737Z,17.85
2022-12-11T07:01:41.043Z,18.05
2022-12-11T07:03:42.429Z,18.90
2022-12-11T07:05:43.802Z,19.38
2022-12-11T07:07:45.211Z,19.10
2022-12-11T07:09:46.517Z,18.52
2022-12-11T07:11:49.433Z,19.17
2022-12-11T07:13:50.956Z,18.63
2022-12-11T07:15:52.281Z,18.85
2022-12-11T07:17:53.708Z,17.33
2022-12-11T07:19:55.069Z,16.45
2022-12-11T07:21:56.412Z,17.13
2022-12-11T07:23:58.474Z,17.52
2022-12-11T07:26:03.537Z,16.20
2022-12-11T07:28:04.941Z,16.00
2022-12-11T07:30:06.660Z,15.85
2022-12-11T07:32:08.120Z,14.82
2022-12-11T07:34:11.535Z,17.20
2022-12-11T07:36:14.472Z,15.65
2022-12-11T07:38:15.776Z,14.60
2022-12-11T07:40:17.177Z,14.35
2022-12-11T07:42:18.506Z,13.45
2022-12-11T07:44:19.849Z,14.85
2022-12-11T07:46:25.232Z,13.27
2022-12-11T07:48:26.537Z,13.35
2022-12-11T07:50:27.949Z,14.32
2022-12-11T07:52:31.373Z,14.23
2022-12-11T07:54:32.658Z,13.27
2022-12-11T07:56:34.505Z,13.88
2022-12-11T07:58:36.137Z,13.65
2022-12-11T08:00:37.451Z,12.52
2022-12-11T08:02:38.941Z,15.30
2022-12-11T08:04:40.358Z,15.07
2022-12-11T08:06:42.292Z,12.65
2022-12-11T08:08:43.718Z,12.65
2022-12-11T08:10:45.194Z,13.77
2022-12-11T08:12:46.574Z,13.52
2022-12-11T08:14:48.090Z,13.52
2022-12-11T08:16:49.618Z,13.57
2022-12-11T08:18:51.098Z,13.63
2022-12-11T08:20:52.433Z,16.35
2022-12-11T08:22:58.923Z,15.15
2022-12-11T08:25:00.603Z,14.65
2022-12-11T08:27:01.944Z,15.38
2022-12-11T08:29:03.641Z,15.57
2022-12-11T08:31:06.636Z,15.82
2022-12-11T08:33:08.046Z,14.95
2022-12-11T08:35:10.080Z,14.60
2022-12-11T08:37:12.225Z,14.82
2022-12-11T08:39:13.591Z,15.82
2022-12-11T08:41:18.928Z,15.55
2022-12-11T08:43:20.420Z,15.98
2022-12-11T08:45:21.764Z,16.42
2022-12-11T08:47:23.174Z,16.55
2022-12-11T08:49:26.574Z,15.68
2022-12-11T08:51:30.472Z,18.33
2022-12-11T08:53:32.832Z,16.70
2022-12-11T08:55:34.180Z,16.13
2022-12-11T08:57:35.540Z,16.08
2022-12-11T08:59:36.893Z,16.80
2022-12-11T09:01:38.331Z,15.00
2022-12-11T09:03:40.191Z,15.55
2022-12-11T09:05:41.674Z,17.20
2022-12-11T09:07:42.997Z,16.10
2022-12-11T09:09:44.323Z,14.88
2022-12-11T09:11:45.668Z,17.58
2022-12-11T09:13:47.119Z,15.95
2022-12-11T09:15:48.554Z,16.35
2022-12-11T09:17:49.993Z,16.10
2022-12-11T09:19:51.274Z,17.75
2022-12-11T09:21:52.586Z,16.00
2022-12-11T09:23:59.813Z,16.20
2022-12-11T09:26:03.994Z,15.43
2022-12-11T09:28:05.284Z,16.33
2022-12-11T09:30:07.401Z,17.08
2022-12-11T09:32:10.418Z,17.38
2022-12-11T09:34:12.234Z,14.45
2022-12-11T09:36:13.793Z,16.42
2022-12-11T09:38:15.207Z,13.73
2022-12-11T09:40:16.689Z,17.15
2022-12-11T09:42:18.067Z,14.23
2022-12-11T09:44:32.622Z,12.73
2022-12-11T09:46:35.723Z,13.05
2022-12-11T09:48:38.136Z,12.95
2022-12-11T09:50:39.516Z,11.43
2022-12-11T09:52:40.830Z,13.55
2022-12-11T09:54:46.024Z,12.18
2022-12-11T09:57:05.159Z,12.52
2022-12-11T09:59:15.496Z,12.52
2022-12-11T10:01:28.801Z,11.35
2022-12-11T10:03:50.299Z,11.02
2022-12-11T10:05:51.643Z,13.00
2022-12-11T10:08:00.705Z,12.57
2022-12-11T10:10:18.682Z,13.38
2022-12-11T10:12:33.497Z,12.05
2022-12-11T10:14:53.775Z,12.15
2022-12-11T10:16:59.932Z,10.90
2022-12-11T10:19:01.509Z,11.18
2022-12-11T10:21:03.436Z,10.93
2022-12-11T10:23:08.573Z,11.85
2022-12-11T10:25:16.315Z,11.73
2022-12-11T10:27:22.043Z,10.70
2022-12-11T10:29:23.456Z,13.40
2022-12-11T10:31:36.851Z,13.60
2022-12-11T10:33:43.754Z,12.18
2022-12-11T10:35:48.243Z,14.05
2022-12-11T10:37:49.822Z,13.65
2022-12-11T10:39:51.202Z,11.93
2022-12-11T10:41:53.849Z,11.25
2022-12-11T10:43:55.178Z,13.05
2022-12-11T10:45:56.567Z,12.20
2022-12-11T10:48:10.491Z,14.27
2022-12-11T10:50:23.016Z,12.32
2022-12-11T10:52:27.244Z,12.07
2022-12-11T10:54:42.362Z,12.20
2022-12-11T10:56:46.389Z,12.82
2022-12-11T10:58:49.660Z,13.30
2022-12-11T11:01:08.184Z,11.52
2022-12-11T11:03:25.811Z,12.95
2022-12-11T11:05:30.037Z,12.95
2022-12-11T11:07:31.672Z,13.35
2022-12-11T11:09:36.178Z,13.23
2022-12-11T11:11:38.228Z,14.43
2022-12-11T11:13:39.653Z,12.35
2022-12-11T11:15:41.232Z,13.05
2022-12-11T11:17:55.753Z,12.98
2022-12-11T11:19:59.116Z,13.02
2022-12-11T11:22:01.859Z,14.57
2022-12-11T11:24:03.841Z,13.25
2022-12-11T11:26:07.601Z,14.07
2022-12-11T11:28:17.777Z,13.20
2022-12-11T11:30:34.011Z,12.65
2022-12-11T11:32:39.613Z,14.95
2022-12-11T11:34:40.930Z,13.95
2022-12-11T11:36:42.309Z,15.90
2022-12-11T11:38:46.421Z,15.60
2022-12-11T11:41:11.522Z,14.45
2022-12-11T11:43:34.592Z,13.73
2022-12-11T11:45:43.969Z,14.00
2022-12-11T11:47:50.876Z,13.73
2022-12-11T11:50:06.154Z,14.00
2022-12-11T11:52:26.468Z,13.45
2022-12-11T11:54:31.507Z,12.60
2022-12-11T11:56:37.505Z,14.20
2022-12-11T11:58:38.895Z,13.38
2022-12-11T12:00:40.287Z,13.25
2022-12-11T12:02:41.986Z,13.20
2022-12-11T12:04:45.786Z,13.70
2022-12-11T12:07:02.236Z,12.00
2022-12-11T12:09:29.111Z,12.10
2022-12-11T12:11:30.772Z,13.23
2022-12-11T12:13:52.268Z,12.82
2022-12-11T12:15:53.719Z,12.80
2022-12-11T12:17:57.635Z,13.00
2022-12-11T12:20:08.137Z,13.63
2022-12-11T12:22:15.540Z,14.07
2022-12-11T12:24:19.830Z,13.82
2022-12-11T12:26:25.565Z,12.45
2022-12-11T12:28:39.220Z,13.48
2022-12-11T12:30:46.014Z,12.57
2022-12-11T12:33:15.131Z,12.48
2022-12-11T12:35:36.735Z,12.13
2022-12-11T12:37:47.538Z,13.50
2022-12-11T12:40:07.618Z,14.10
2022-12-11T12:42:24.205Z,14.32
2022-12-11T12:44:30.367Z,14.38
2022-12-11T12:46:46.201Z,14.70
2022-12-11T12:48:48.099Z,14.85
2022-12-11T12:50:50.788Z,14.45
2022-12-11T12:52:53.591Z,15.82
2022-12-11T12:55:18.085Z,16.02
2022-12-11T12:57:19.684Z,17.33
2022-12-11T12:59:22.662Z,17.60
2022-12-11T13:01:28.491Z,16.27
2022-12-11T13:03:31.807Z,16.05
2022-12-11T13:05:34.224Z,17.30
2022-12-11T13:07:35.590Z,16.48
2022-12-11T13:09:36.973Z,18.73
2022-12-11T13:11:39.884Z,16.60
2022-12-11T13:13:47.971Z,17.80
2022-12-11T13:15:53.270Z,16.52
2022-12-11T13:17:56.799Z,17.55
2022-12-11T13:20:17.964Z,17.80
2022-12-11T13:24:26.330Z,14.32
2022-12-11T13:26:29.656Z,15.45
2022-12-11T13:28:48.425Z,16.30
2022-12-11T13:31:20.967Z,16.88
2022-12-11T13:33:23.004Z,17.42
2022-12-11T13:35:24.423Z,15.80
2022-12-11T13:37:34.301Z,16.60
2022-12-11T13:39:37.672Z,17.08
2022-12-11T13:41:39.048Z,16.77
2022-12-11T13:43:42.180Z,17.70
2022-12-11T13:45:49.516Z,17.67
2022-12-11T13:47:51.192Z,18.30
2022-12-11T13:49:54.875Z,17.80
2022-12-11T13:51:57.704Z,17.13
2022-12-11T13:54:06.691Z,17.98
2022-12-11T13:56:16.138Z,16.48
2022-12-11T13:58:21.632Z,16.10
2022-12-11T14:00:24.381Z,15.38
2022-12-11T14:02:38.166Z,16.60
2022-12-11T14:04:39.695Z,16.50
2022-12-11T14:06:41.295Z,16.25
2022-12-11T14:08:43.983Z,16.35
2022-12-11T14:10:45.446Z,17.42
2022-12-11T14:12:52.866Z,16.80
2022-12-11T14:14:57.038Z,17.33
2022-12-11T14:16:58.618Z,16.65
2022-12-11T14:19:04.363Z,17.88
2022-12-11T14:21:06.128Z,17.75
2022-12-11T14:23:08.564Z,18.67
2022-12-11T14:25:26.812Z,17.75
2022-12-11T14:27:28.330Z,18.67
2022-12-11T14:29:31.002Z,17.25
2022-12-11T14:31:42.104Z,16.70
2022-12-11T14:33:45.114Z,18.70
2022-12-11T14:35:47.267Z,17.90
2022-12-11T14:37:49.004Z,18.08
2022-12-11T14:39:56.521Z,18.05
2022-12-11T14:42:00.671Z,18.02
2022-12-11T14:44:03.810Z,18.38
2022-12-11T14:46:08.837Z,18.00
2022-12-11T14:48:15.167Z,18.52
2022-12-11T14:50:22.341Z,18.30
2022-12-11T14:52:25.808Z,17.52
2022-12-11T14:54:34.167Z,17.85
2022-12-11T14:56:35.660Z,17.90
2022-12-11T14:58:45.706Z,18.65
2022-12-11T15:00:57.568Z,15.03
2022-12-11T15:03:03.663Z,15.65
2022-12-11T15:05:13.995Z,16.13
2022-12-11T15:07:22.056Z,13.98
2022-12-11T15:09:38.295Z,13.93
2022-12-11T15:11:39.662Z,15.90
2022-12-11T15:13:46.702Z,14.73
2022-12-11T15:15:48.302Z,15.05
2022-12-11T15:17:53.026Z,14.27
2022-12-11T15:19:56.003Z,14.60
2022-12-11T15:22:08.430Z,13.63
2022-12-11T15:24:22.462Z,13.57
2022-12-11T15:26:37.316Z,14.25
2022-12-11T15:28:39.055Z,12.65
2022-12-11T15:30:40.592Z,13.13
2022-12-11T15:32:45.639Z,13.68
2022-12-11T15:34:47.330Z,13.52
2022-12-11T15:36:53.863Z,13.50
2022-12-11T15:38:55.285Z,14.20
2022-12-11T15:40:56.980Z,14.23
2022-12-11T15:43:01.224Z,13.70
2022-12-11T15:45:05.410Z,13.45
2022-12-11T15:47:13.323Z,13.05
2022-12-11T15:49:15.600Z,13.95
2022-12-11T15:51:17.141Z,13.95
2022-12-11T15:53:18.838Z,13.75
2022-12-11T15:55:20.837Z,14.23
2022-12-11T15:57:23.751Z,14.18
2022-12-11T15:59:25.240Z,13.48
2022-12-11T16:01:35.672Z,13.48
2022-12-11T16:03:37.698Z,13.40
2022-12-11T16:05:39.342Z,14.68
2022-12-11T16:07:40.780Z,14.13
2022-12-11T16:09:42.344Z,14.18
2022-12-11T16:11:43.644Z,14.68
2022-12-11T16:13:45.144Z,13.82
2022-12-11T16:15:47.217Z,14.18
2022-12-11T16:17:48.576Z,14.10
2022-12-11T16:19:50.043Z,14.80
2022-12-11T16:21:52.456Z,14.38
2022-12-11T16:23:53.832Z,15.15
2022-12-11T16:25:55.132Z,15.85
2022-12-11T16:27:57.197Z,15.40
2022-12-11T16:29:58.536Z,15.48
2022-12-11T16:31:59.916Z,14.48
2022-12-11T16:34:01.304Z,15.48
2022-12-11T16:36:02.750Z,13.93
2022-12-11T16:38:04.146Z,13.70
2022-12-11T16:40:06.668Z,15.15
2022-12-11T16:42:08.058Z,14.27
2022-12-11T16:44:10.439Z,14.68
2022-12-11T16:46:11.855Z,15.35
2022-12-11T16:48:13.215Z,13.80
2022-12-11T16:50:15.791Z,14.38
2022-12-11T16:52:21.977Z,14.25
2022-12-11T16:54:23.691Z,14.70
2022-12-11T16:56:26.714Z,13.90
2022-12-11T16:58:28.093Z,13.95
2022-12-11T17:00:29.430Z,13.93
2022-12-11T17:02:31.096Z,14.55
2022-12-11T17:04:32.620Z,15.05
2022-12-11T17:06:33.985Z,14.25
2022-12-11T17:08:35.373Z,13.55
2022-12-11T17:10:40.906Z,14.18
2022-12-11T17:12:42.291Z,14.52
2022-12-11T17:14:43.690Z,14.25
2022-12-11T17:16:45.022Z,13.85
2022-12-11T17:18:46.601Z,14.57
2022-12-11T17:20:47.941Z,14.85
2022-12-11T17:22:49.390Z,13.93
2022-12-11T17:24:50.664Z,13.85
2022-12-11T17:26:52.239Z,14.48
2022-12-11T17:28:53.677Z,14.13
2022-12-11T17:30:55.060Z,14.23
2022-12-11T17:32:56.454Z,14.25
2022-12-11T17:34:57.814Z,16.05
2022-12-11T17:36:59.241Z,14.73
2022-12-11T17:39:00.700Z,16.35
2022-12-11T17:41:05.692Z,15.60
2022-12-11T17:43:09.260Z,15.88
2022-12-11T17:45:11.069Z,15.93
2022-12-11T17:47:12.641Z,14.93
2022-12-11T17:49:14.045Z,14.73
2022-12-11T17:51:21.045Z,15.80
2022-12-11T17:53:22.952Z,15.13
2022-12-11T17:55:24.790Z,14.30
2022-12-11T17:57:26.176Z,16.10
2022-12-11T17:59:27.466Z,14.45
2022-12-11T18:01:28.837Z,15.85
2022-12-11T18:03:30.294Z,16.50
2022-12-11T18:05:32.213Z,17.33
2022-12-11T18:07:36.177Z,16.40
2022-12-11T18:09:39.377Z,16.27
2022-12-11T18:11:41.096Z,15.77
2022-12-11T18:13:43.652Z,16.15
2022-12-11T18:15:45.063Z,16.83
2022-12-11T18:17:46.353Z,17.75
2022-12-11T18:19:47.689Z,17.30
2022-12-11T18:21:49.098Z,18.05
2022-12-11T18:23:50.484Z,17.23
2022-12-11T18:25:51.962Z,18.05
2022-12-11T18:27:55.160Z,16.40
2022-12-11T18:29:56.543Z,16.85
2022-12-11T18:31:57.899Z,17.08
2022-12-11T18:33:59.444Z,16.85
2022-12-11T18:36:00.767Z,16.35
2022-12-11T18:38:02.230Z,16.25
2022-12-11T18:40:07.348Z,16.70
2022-12-11T18:42:32.432Z,17.35
2022-12-11T18:44:30.109Z,14.80
2022-12-11T18:46:31.448Z,16.00
2022-12-11T18:48:32.985Z,16.23
2022-12-11T18:50:34.467Z,16.60
2022-12-11T18:52:35.864Z,16.25
2022-12-11T18:54:37.270Z,17.27
2022-12-11T18:56:38.883Z,16.08
2022-12-11T18:58:40.661Z,16.17
2022-12-11T19:00:42.769Z,16.45
2022-12-11T19:02:44.309Z,16.40
2022-12-11T19:04:45.730Z,17.27
2022-12-11T19:06:47.282Z,16.25
2022-12-11T19:08:48.698Z,16.98
2022-12-11T19:10:50.077Z,16.70
2022-12-11T19:12:51.641Z,17.02
2022-12-11T19:14:53.071Z,16.58
2022-12-11T19:16:54.386Z,16.80
2022-12-11T19:18:57.584Z,17.20
2022-12-11T19:21:06.749Z,17.67
2022-12-11T19:23:10.251Z,16.38
2022-12-11T19:25:11.914Z,17.25
2022-12-11T19:27:14.079Z,16.65
2022-12-11T19:29:24.712Z,16.15
2022-12-11T19:31:26.906Z,14.73
2022-12-11T19:33:28.234Z,15.45
2022-12-11T19:35:29.580Z,16.77
2022-12-11T19:37:33.972Z,17.17
2022-12-11T19:39:37.808Z,15.90
2022-12-11T19:41:39.251Z,17.10
2022-12-11T19:43:40.627Z,16.17
2022-12-11T19:45:42.600Z,16.52
2022-12-11T19:47:46.364Z,17.08
2022-12-11T19:49:48.630Z,17.63
2022-12-11T19:51:50.384Z,16.70
2022-12-11T19:53:54.603Z,15.25
2022-12-11T19:55:58.400Z,18.15
2022-12-11T19:58:01.308Z,16.27
2022-12-11T20:00:03.269Z,17.48
2022-12-11T20:02:05.062Z,17.42
2022-12-11T20:04:08.097Z,18.20
2022-12-11T20:06:10.360Z,18.10
2022-12-11T20:08:43.073Z,18.25
2022-12-11T20:10:38.818Z,16.85
2022-12-11T20:12:40.350Z,17.67
2022-12-11T20:14:41.884Z,17.92
2022-12-11T20:17:10.202Z,16.70
2022-12-11T20:19:05.248Z,16.42
2022-12-11T20:21:08.607Z,17.63
2022-12-11T20:23:10.028Z,28.92
2022-12-11T20:25:11.904Z,30.38
2022-12-11T20:27:13.558Z,32.35
2022-12-11T20:29:15.506Z,18.25
2022-12-11T20:31:21.971Z,16.58
2022-12-11T20:33:28.738Z,16.15
2022-12-11T20:35:30.060Z,14.88
2022-12-11T20:37:31.981Z,15.73
2022-12-11T20:39:35.607Z,16.55
2022-12-11T20:41:36.961Z,16.63
2022-12-11T20:43:39.047Z,16.33
2022-12-11T20:45:40.654Z,15.80
2022-12-11T20:47:42.093Z,16.08
2022-12-11T20:49:43.738Z,16.10
2022-12-11T20:51:45.273Z,16.58
2022-12-11T20:53:47.736Z,16.92
2022-12-11T20:55:49.135Z,16.73
2022-12-11T20:57:50.625Z,17.45
2022-12-11T20:59:52.137Z,16.33
2022-12-11T21:01:54.027Z,16.52
2022-12-11T21:03:55.795Z,15.75
2022-12-11T21:05:57.283Z,16.90
2022-12-11T21:07:58.792Z,16.85
2022-12-11T21:10:00.275Z,16.35
2022-12-11T21:12:02.526Z,17.35
2022-12-11T21:14:04.236Z,16.88
2022-12-11T21:16:06.875Z,16.83
2022-12-11T21:18:09.002Z,15.88
2022-12-11T21:20:10.701Z,17.23
2022-12-11T21:22:12.098Z,16.67
2022-12-11T21:24:21.488Z,16.08
2022-12-11T21:26:22.953Z,16.30
2022-12-11T21:28:24.502Z,16.60
2022-12-11T21:30:26.559Z,17.67
2022-12-11T21:32:29.958Z,17.13
2022-12-11T21:34:31.374Z,17.25
2022-12-11T21:36:33.734Z,16.52
2022-12-11T21:38:35.345Z,16.98
2022-12-11T21:40:36.733Z,16.35
2022-12-11T21:42:38.170Z,15.80
2022-12-11T21:45:31.389Z,16.27
2022-12-11T21:47:01.561Z,16.42
2022-12-11T21:49:03.222Z,16.27
2022-12-11T21:51:15.255Z,16.30
2022-12-11T21:53:16.640Z,16.33
2022-12-11T21:55:20.848Z,17.17
2022-12-11T21:57:26.235Z,17.60
2022-12-11T21:59:28.685Z,17.73
2022-12-11T22:01:32.271Z,20.13
2022-12-11T22:03:33.780Z,23.40
2022-12-11T22:05:35.229Z,22.88
2022-12-11T22:07:36.557Z,23.55
2022-12-11T22:09:38.149Z,22.98
2022-12-11T22:11:40.368Z,23.58
2022-12-11T22:13:41.938Z,23.95
2022-12-11T22:15:43.301Z,22.50
2022-12-11T22:17:44.629Z,22.77
2022-12-11T22:19:46.263Z,21.73
2022-12-11T22:21:47.552Z,22.83
2022-12-11T22:23:49.087Z,22.42
2022-12-11T22:25:51.543Z,23.25
2022-12-11T22:27:52.982Z,22.80
2022-12-11T22:29:54.437Z,22.40
2022-12-11T22:31:55.812Z,21.45
2022-12-11T22:33:57.278Z,20.73
2022-12-11T22:35:59.520Z,20.50
2022-12-11T22:38:01.238Z,20.48
2022-12-11T22:40:02.920Z,21.40
2022-12-11T22:42:04.597Z,19.77
2022-12-11T22:44:05.985Z,20.38
2022-12-11T22:46:09.673Z,19.90
2022-12-11T22:48:11.193Z,19.48
2022-12-11T22:50:13.293Z,19.75
2022-12-11T22:52:14.656Z,19.15
2022-12-11T22:54:16.433Z,18.60
2022-12-11T22:56:17.991Z,17.13
2022-12-11T22:58:21.947Z,16.85
2022-12-11T23:00:23.626Z,16.25
2022-12-11T23:02:25.012Z,17.13
2022-12-11T23:04:26.456Z,16.50
2022-12-11T23:06:27.758Z,16.40
2022-12-11T23:08:29.335Z,14.55
2022-12-11T23:10:31.788Z,15.23
2022-12-11T23:12:33.330Z,15.90
2022-12-11T23:14:34.735Z,14.93
2022-12-11T23:16:36.113Z,14.65
2022-12-11T23:18:37.888Z,14.80
2022-12-11T23:20:39.265Z,14.10
2022-12-11T23:22:41.527Z,14.40
2022-12-11T23:24:43.082Z,14.60
